Time;durP1;ratioP1;P1;durP2;ratioP2;P2;SDS_P1;SDS_P2;PMS_P1;PMS_P2;Temp;Humidity;BMP_temperature;BMP_pressure;BME280_temperature;BME280_humidity;BME280_pressure;Samples;Min_cycle;Max_cycle;Signal;HPM_P1;HPM_P2
2023/01/22 00:01:36;;;;;;;25.70;11.30;;;22.50;45.80;;;;;;221989;1260;22524;-51
2023/01/22 00:06:40;;;;;;;28.70;12.00;;;22.70;47.30;;;;;;221873;1264;22549;-49
2023/01/22 00:11:44;;;;;;;20.00;11.20;;;22.80;48.70;;;;;;222004;1267;23563;-49
2023/01/22 00:16:48;;;;;;;17.00;11.50;;;22.80;46.50;;;;;;221809;1257;22658;-51
2023/01/22 00:21:52;;;;;;;16.50;11.50;;;22.90;46.70;;;;;;222017;1263;25334;-50
2023/01/22 00:26:56;;;;;;;13.90;10.40;;;23.10;46.30;;;;;;222074;1260;24211;-52
2023/01/22 00:32:00;;;;;;;15.90;11.70;;;23.10;46.20;;;;;;221855;1267;22650;-51
2023/01/22 00:37:04;;;;;;;14.20;10.50;;;23.10;46.60;;;;;;223404;1263;22528;-52
2023/01/22 00:42:08;;;;;;;17.20;10.90;;;23.30;45.90;;;;;;228346;1256;22517;-52
2023/01/22 00:47:12;;;;;;;14.00;11.20;;;23.40;46.30;;;;;;224539;1247;22640;-50
2023/01/22 00:52:17;;;;;;;14.20;11.10;;;23.50;46.10;;;;;;222179;1253;24217;-51
2023/01/22 00:57:22;;;;;;;15.50;10.20;;;23.40;45.90;;;;;;221953;1257;22557;-51
2023/01/22 01:02:26;;;;;;;11.60;10.10;;;23.40;45.50;;;;;;221896;1261;24243;-52
2023/01/22 01:07:30;;;;;;;14.20;10.20;;;23.40;45.70;;;;;;221715;1271;22624;-49
2023/01/22 01:12:34;;;;;;;14.50;10.90;;;23.40;45.80;;;;;;223730;1264;23902;-52
2023/01/22 01:17:39;;;;;;;11.60;10.40;;;23.40;46.10;;;;;;221758;1267;22736;-49
2023/01/22 01:22:46;;;;;;;12.20;10.10;;;23.20;46.20;;;;;;221878;1266;22542;-51
2023/01/22 01:27:52;;;;;;;11.20;9.90;;;23.20;47.00;;;;;;221840;1271;22537;-51
2023/01/22 01:32:57;;;;;;;11.90;10.00;;;23.00;47.00;;;;;;221783;1267;22557;-50
2023/01/22 01:38:01;;;;;;;11.30;9.60;;;22.90;46.60;;;;;;221655;1271;24448;-50
2023/01/22 01:43:15;;;;;;;12.00;10.00;;;22.70;47.30;;;;;;227084;1270;24384;-51
2023/01/22 01:48:25;;;;;;;11.50;9.50;;;22.70;48.00;;;;;;226926;1263;22963;-51
2023/01/22 01:53:30;;;;;;;11.40;10.10;;;22.70;47.70;;;;;;221764;1264;23335;-48
2023/01/22 01:58:36;;;;;;;11.30;10.10;;;22.60;47.60;;;;;;224400;1267;23322;-51
2023/01/22 02:03:41;;;;;;;11.90;10.40;;;22.40;48.00;;;;;;225683;1271;22531;-50
2023/01/22 02:08:47;;;;;;;12.10;10.10;;;22.40;47.60;;;;;;222226;1270;158645;-49
2023/01/22 02:14:04;;;;;;;11.80;9.80;;;22.30;47.90;;;;;;221900;1264;22567;-51
2023/01/22 02:19:09;;;;;;;11.30;9.80;;;22.20;48.10;;;;;;221922;1268;22895;-52
2023/01/22 02:24:15;;;;;;;12.30;10.30;;;22.20;48.40;;;;;;221925;1257;24040;-47
2023/01/22 02:29:19;;;;;;;11.80;9.60;;;22.10;48.50;;;;;;222240;1257;24199;-51
2023/01/22 02:34:24;;;;;;;11.70;10.50;;;22.00;48.50;;;;;;220811;1274;22551;-48
2023/01/22 02:39:29;;;;;;;10.40;9.00;;;22.00;48.70;;;;;;220676;1267;22633;-50
2023/01/22 02:44:34;;;;;;;10.30;9.30;;;21.90;49.10;;;;;;227775;1278;22555;-50
2023/01/22 02:49:38;;;;;;;13.40;10.30;;;22.00;48.50;;;;;;228737;1267;22148;-51
2023/01/22 02:54:42;;;;;;;11.90;10.30;;;22.10;48.30;;;;;;222976;1261;24523;-47
2023/01/22 02:59:48;;;;;;;10.50;9.40;;;22.00;48.30;;;;;;221990;1270;25476;-51
2023/01/22 03:05:02;;;;;;;10.90;9.70;;;21.90;48.80;;;;;;221817;1271;22547;-50
2023/01/22 03:10:10;;;;;;;11.50;10.30;;;21.80;49.10;;;;;;221853;1270;22537;-51
2023/01/22 03:26:01;;;;;;;11.30;9.70;;;21.60;49.20;;;;;;221842;1270;22521;-48
2023/01/22 03:31:05;;;;;;;11.10;10.00;;;21.60;49.30;;;;;;221846;1263;22966;-49
2023/01/22 03:36:13;;;;;;;10.10;9.00;;;21.70;49.70;;;;;;221813;1270;22647;-49
2023/01/22 03:41:21;;;;;;;9.60;8.30;;;22.20;49.00;;;;;;221892;1262;24761;-52
2023/01/22 03:46:26;;;;;;;10.60;9.10;;;22.30;48.40;;;;;;221983;1270;24275;-54
2023/01/22 03:51:32;;;;;;;10.20;9.10;;;22.50;48.70;;;;;;221944;1270;22555;-50
2023/01/22 03:56:38;;;;;;;9.60;8.70;;;22.60;48.50;;;;;;221677;1253;22667;-48
2023/01/22 04:01:49;;;;;;;10.00;9.00;;;22.70;47.70;;;;;;221902;1269;25485;-51
2023/01/22 04:06:54;;;;;;;10.10;9.00;;;22.90;47.50;;;;;;221747;1256;24036;-52
2023/01/22 04:11:58;;;;;;;11.10;9.60;;;23.00;47.00;;;;;;221864;1267;22551;-47
2023/01/22 04:17:03;;;;;;;10.10;9.00;;;23.00;47.20;;;;;;221936;1255;22540;-50
2023/01/22 04:22:36;;;;;;;9.40;8.50;;;23.10;46.20;;;;;;221754;1270;22639;-50
2023/01/22 04:27:45;;;;;;;8.80;7.90;;;23.20;46.50;;;;;;221863;1256;24661;-52
2023/01/22 04:32:52;;;;;;;9.10;8.20;;;23.10;46.30;;;;;;221981;1256;24371;-51
2023/01/22 04:38:10;;;;;;;9.80;8.80;;;23.20;46.50;;;;;;222020;1263;23867;-51
2023/01/22 04:43:14;;;;;;;9.90;8.70;;;23.20;46.50;;;;;;221890;1260;22613;-51
2023/01/22 04:48:19;;;;;;;10.10;8.40;;;23.20;47.20;;;;;;221788;1258;22525;-49
2023/01/22 04:53:23;;;;;;;10.10;8.90;;;23.30;46.50;;;;;;221960;1260;22663;-50
2023/01/22 04:58:27;;;;;;;9.80;8.70;;;23.30;46.50;;;;;;222011;1271;22541;-53
2023/01/22 05:03:33;;;;;;;9.20;8.40;;;23.30;46.40;;;;;;222219;1267;22660;-51
2023/01/22 05:08:38;;;;;;;10.60;8.80;;;23.40;46.40;;;;;;221948;1270;22624;-51
2023/01/22 05:13:44;;;;;;;8.90;8.00;;;23.40;46.50;;;;;;221923;1266;22540;-51
2023/01/22 05:18:48;;;;;;;8.70;7.80;;;23.40;46.60;;;;;;222036;1267;24145;-46
2023/01/22 05:23:53;;;;;;;9.20;8.30;;;23.40;46.50;;;;;;221859;1270;23876;-49
2023/01/22 05:28:58;;;;;;;9.00;8.20;;;23.40;46.50;;;;;;221917;1261;24197;-51
2023/01/22 05:34:21;;;;;;;9.10;8.20;;;23.40;46.60;;;;;;221785;1247;23905;-51
2023/01/22 05:39:26;;;;;;;10.40;7.70;;;23.40;46.60;;;;;;221905;1270;22538;-52
2023/01/22 05:44:32;;;;;;;8.30;7.50;;;23.50;46.60;;;;;;221866;1266;22538;-52
2023/01/22 05:49:37;;;;;;;8.10;7.30;;;23.50;46.50;;;;;;221950;1271;24077;-51
2023/01/22 05:54:42;;;;;;;7.90;7.10;;;23.50;46.40;;;;;;221849;1270;24223;-51
2023/01/22 05:59:47;;;;;;;8.70;7.70;;;23.60;46.40;;;;;;222310;1263;22542;-52
2023/01/22 06:04:51;;;;;;;8.90;8.10;;;23.70;46.00;;;;;;221896;1267;22617;-51
2023/01/22 06:09:59;;;;;;;8.50;7.80;;;23.70;46.40;;;;;;221972;1270;22890;-53
2023/01/22 06:15:05;;;;;;;7.10;6.50;;;23.70;47.00;;;;;;221801;1271;25422;-53
2023/01/22 06:20:10;;;;;;;8.00;7.20;;;23.70;46.40;;;;;;222034;1269;25482;-52
2023/01/22 06:25:14;;;;;;;7.20;6.60;;;23.70;46.40;;;;;;222060;1263;22599;-51
2023/01/22 06:30:38;;;;;;;8.50;7.50;;;23.70;46.90;;;;;;222020;1261;22534;-52
2023/01/22 06:35:42;;;;;;;7.70;6.90;;;23.70;46.60;;;;;;222077;1248;24366;-52
2023/01/22 06:40:54;;;;;;;7.40;6.70;;;23.70;46.80;;;;;;221909;1267;23919;-53
2023/01/22 06:45:59;;;;;;;7.60;7.00;;;23.70;46.70;;;;;;221861;1270;22534;-49
2023/01/22 06:51:27;;;;;;;7.30;6.70;;;23.60;46.70;;;;;;221614;1260;24994;-50
2023/01/22 06:56:32;;;;;;;7.30;6.70;;;23.70;46.60;;;;;;221854;1259;25313;-51
2023/01/22 07:01:36;;;;;;;7.60;7.00;;;23.70;46.60;;;;;;221983;1270;22551;-52
2023/01/22 07:06:40;;;;;;;7.80;7.00;;;23.70;46.90;;;;;;221860;1270;25094;-49
2023/01/22 07:11:44;;;;;;;7.60;6.90;;;23.70;46.60;;;;;;222072;1265;22697;-51
2023/01/22 07:16:48;;;;;;;7.50;6.80;;;23.70;46.50;;;;;;221781;1267;22668;-52
2023/01/22 07:21:52;;;;;;;7.70;6.90;;;23.70;46.50;;;;;;221847;1271;23881;-51
2023/01/22 07:26:56;;;;;;;7.70;7.00;;;23.80;46.50;;;;;;221944;1256;22534;-51
2023/01/22 07:31:59;;;;;;;7.10;6.50;;;23.80;46.60;;;;;;221878;1256;22650;-50
2023/01/22 07:37:03;;;;;;;7.50;6.80;;;23.90;47.00;;;;;;221866;1270;25464;-49
2023/01/22 07:42:07;;;;;;;6.80;6.20;;;23.90;46.60;;;;;;221876;1271;24200;-52
2023/01/22 07:47:11;;;;;;;7.00;6.40;;;23.90;46.60;;;;;;221708;1263;22636;-50
2023/01/22 07:52:15;;;;;;;7.40;6.80;;;23.90;47.00;;;;;;222089;1271;22650;-52
2023/01/22 07:57:19;;;;;;;7.00;6.40;;;23.90;46.60;;;;;;221954;1270;22526;-50
2023/01/22 08:02:25;;;;;;;7.30;6.60;;;23.90;47.10;;;;;;222036;1270;22537;-51
2023/01/22 08:07:30;;;;;;;6.70;6.10;;;23.90;46.80;;;;;;221971;1267;24036;-54
2023/01/22 08:12:37;;;;;;;7.30;6.70;;;23.90;46.70;;;;;;221886;1256;24366;-50
2023/01/22 08:17:41;;;;;;;7.60;6.90;;;24.00;46.50;;;;;;221752;1247;24135;-51
2023/01/22 08:22:45;;;;;;;6.80;6.20;;;24.00;46.50;;;;;;221911;1270;23801;-53
2023/01/22 08:27:49;;;;;;;7.80;7.10;;;24.10;46.30;;;;;;221945;1256;22584;-51
2023/01/22 08:32:54;;;;;;;6.70;6.20;;;24.10;46.30;;;;;;221864;1270;22525;-54
2023/01/22 08:37:59;;;;;;;7.40;6.70;;;24.10;46.40;;;;;;222047;1254;24334;-51
2023/01/22 08:43:03;;;;;;;8.20;7.40;;;23.90;46.60;;;;;;222004;1247;22539;-52
2023/01/22 08:48:07;;;;;;;7.40;6.80;;;23.80;47.30;;;;;;222153;1270;23547;-50
2023/01/22 08:53:11;;;;;;;7.60;6.40;;;23.70;47.00;;;;;;222284;1256;22524;-49
2023/01/22 08:58:16;;;;;;;7.40;6.70;;;23.60;47.10;;;;;;222104;1270;22688;-49
2023/01/22 09:03:21;;;;;;;7.30;6.60;;;23.50;47.40;;;;;;221761;1266;22762;-50
2023/01/22 09:08:25;;;;;;;6.20;5.70;;;23.50;47.10;;;;;;221928;1247;25589;-53
2023/01/22 09:13:29;;;;;;;7.90;7.10;;;23.40;48.10;;;;;;221918;1256;22568;-48
2023/01/22 09:18:33;;;;;;;9.40;7.00;;;23.30;48.10;;;;;;221865;1263;25619;-50
2023/01/22 09:23:38;;;;;;;8.20;7.40;;;23.10;48.30;;;;;;221941;1267;23294;-50
2023/01/22 09:28:42;;;;;;;10.00;7.20;;;23.00;48.50;;;;;;221883;1264;22535;-49
2023/01/22 09:33:46;;;;;;;10.30;7.90;;;22.90;48.60;;;;;;222076;1259;22603;-51
2023/01/22 09:38:50;;;;;;;8.80;7.90;;;22.80;49.00;;;;;;222230;1263;23382;-51
2023/01/22 09:44:03;;;;;;;8.00;7.20;;;22.90;49.70;;;;;;222402;1260;22664;-51
2023/01/22 09:49:18;;;;;;;11.00;7.90;;;22.80;49.00;;;;;;221711;1263;22707;-52
2023/01/22 09:54:23;;;;;;;10.00;7.90;;;22.70;49.30;;;;;;222071;1263;24204;-49
2023/01/22 09:59:35;;;;;;;11.10;7.90;;;22.70;49.40;;;;;;221959;1259;26725;-51
2023/01/22 10:04:44;;;;;;;12.50;8.40;;;22.70;48.90;;;;;;221856;1260;22524;-50
2023/01/22 10:09:54;;;;;;;11.70;8.20;;;22.50;49.00;;;;;;222195;1260;24191;-51
2023/01/22 10:14:58;;;;;;;11.40;7.90;;;22.50;49.50;;;;;;222337;1266;25351;-51
2023/01/22 10:20:05;;;;;;;10.40;8.60;;;22.60;50.00;;;;;;222087;1259;22528;-49
2023/01/22 10:25:14;;;;;;;11.80;8.70;;;22.60;49.80;;;;;;221903;1259;24237;-49
2023/01/22 10:30:24;;;;;;;11.60;8.70;;;22.40;49.30;;;;;;221993;1263;25590;-52
2023/01/22 10:35:32;;;;;;;10.60;8.90;;;22.30;49.40;;;;;;222002;1267;24760;-50
2023/01/22 10:40:39;;;;;;;9.30;7.80;;;22.30;49.50;;;;;;222018;1249;24040;-50
2023/01/22 10:45:58;;;;;;;9.10;8.30;;;22.30;49.60;;;;;;221867;1262;22639;-49
2023/01/22 10:57:56;;;;;;;9.80;7.90;;;22.20;49.30;;;;;;221735;1259;22589;-52
2023/01/22 11:03:12;;;;;;;12.30;8.80;;;22.00;49.90;;;;;;221943;1268;22683;-53
2023/01/22 11:08:18;;;;;;;10.20;8.20;;;22.00;50.00;;;;;;222276;1266;22521;-47
2023/01/22 11:13:41;;;;;;;9.50;7.90;;;22.00;50.20;;;;;;221835;1262;25664;-50
2023/01/22 11:19:03;;;;;;;9.50;8.00;;;21.80;50.40;;;;;;221860;1259;25598;-50
2023/01/22 11:24:45;;;;;;;9.20;8.30;;;21.90;50.50;;;;;;221897;1263;22532;-47
2023/01/22 11:30:10;;;;;;;10.60;8.80;;;21.90;50.00;;;;;;227446;1259;22680;-50
2023/01/22 11:35:43;;;;;;;8.60;7.70;;;21.90;50.30;;;;;;229870;1263;22279;-48
2023/01/22 11:41:02;;;;;;;9.20;8.30;;;21.90;49.90;;;;;;229966;1269;22684;-51
2023/01/22 11:46:24;;;;;;;9.70;8.70;;;22.00;49.50;;;;;;225236;1264;23399;-48
2023/01/22 11:51:35;;;;;;;9.20;7.80;;;22.30;48.60;;;;;;222061;1259;22682;-51
2023/01/22 11:56:48;;;;;;;8.90;8.00;;;22.60;48.40;;;;;;222278;1263;22527;-48
2023/01/22 12:02:04;;;;;;;8.00;7.10;;;22.70;48.00;;;;;;222063;1270;24749;-50
2023/01/22 12:07:27;;;;;;;8.40;7.20;;;22.70;47.80;;;;;;222020;1271;22738;-52
2023/01/22 12:13:05;;;;;;;10.30;8.30;;;22.80;47.40;;;;;;221842;1271;22892;-50
2023/01/22 12:18:58;;;;;;;9.10;8.20;;;22.90;47.40;;;;;;222185;1270;22533;-50
2023/01/22 12:24:19;;;;;;;8.30;7.50;;;22.90;47.10;;;;;;220860;1278;22550;-52
2023/01/22 12:29:33;;;;;;;8.10;7.30;;;23.10;46.70;;;;;;220975;1277;26513;-51
2023/01/22 12:35:05;;;;;;;8.90;8.00;;;23.10;46.40;;;;;;221047;1276;24351;-50
2023/01/22 12:40:22;;;;;;;9.00;8.10;;;23.30;46.70;;;;;;220943;1274;24505;-50
2023/01/22 12:45:34;;;;;;;9.70;8.70;;;23.30;46.10;;;;;;220947;1275;22647;-50
2023/01/22 12:50:55;;;;;;;8.40;7.60;;;23.40;45.90;;;;;;220939;1273;23756;-50
2023/01/22 12:56:09;;;;;;;9.00;8.10;;;23.50;45.90;;;;;;221001;1272;26049;-51
2023/01/22 13:01:13;;;;;;;8.80;7.90;;;23.50;45.90;;;;;;222048;1257;22528;-51
2023/01/22 13:06:21;;;;;;;9.40;8.60;;;23.50;45.70;;;;;;222103;1269;22780;-50
2023/01/22 13:11:37;;;;;;;9.40;8.50;;;23.50;45.60;;;;;;221960;1260;25373;-52
2023/01/22 13:17:09;;;;;;;9.60;8.60;;;23.40;45.80;;;;;;221990;1270;22609;-47
2023/01/22 13:22:16;;;;;;;9.10;8.20;;;23.40;45.90;;;;;;221830;1263;22561;-51
2023/01/22 13:27:24;;;;;;;8.20;7.50;;;23.40;45.90;;;;;;221915;1270;22698;-49
2023/01/22 13:32:29;;;;;;;9.60;8.70;;;23.50;45.80;;;;;;222047;1250;22643;-52
2023/01/22 13:37:34;;;;;;;9.10;8.30;;;23.50;45.60;;;;;;221985;1270;22884;-49
2023/01/22 13:42:44;;;;;;;8.40;7.70;;;23.60;46.00;;;;;;222049;1257;24207;-52
2023/01/22 13:47:51;;;;;;;9.20;8.30;;;23.60;45.40;;;;;;222157;1270;22769;-53
2023/01/22 13:53:00;;;;;;;8.50;7.60;;;23.70;45.30;;;;;;222175;1270;23883;-50
2023/01/22 13:58:31;;;;;;;8.90;8.10;;;23.70;45.10;;;;;;222102;1269;26557;-52
2023/01/22 14:03:59;;;;;;;8.00;6.90;;;23.80;45.00;;;;;;222355;1256;24240;-51
2023/01/22 14:09:08;;;;;;;8.30;7.50;;;23.80;44.90;;;;;;221953;1270;147493;-52
2023/01/22 14:14:15;;;;;;;8.60;7.80;;;23.80;44.90;;;;;;222104;1270;22546;-50
2023/01/22 14:19:20;;;;;;;8.70;7.80;;;23.70;45.50;;;;;;222126;1270;23107;-50
2023/01/22 14:24:25;;;;;;;8.60;7.80;;;23.70;45.20;;;;;;221679;1271;22541;-53
2023/01/22 14:29:30;;;;;;;8.00;7.30;;;23.50;45.40;;;;;;222000;1257;22643;-52
2023/01/22 14:34:35;;;;;;;7.80;7.20;;;23.40;45.80;;;;;;222051;1258;24852;-52
2023/01/22 14:39:40;;;;;;;7.80;7.10;;;23.50;45.40;;;;;;222060;1270;22715;-51
2023/01/22 14:44:45;;;;;;;8.10;7.30;;;23.60;45.20;;;;;;221963;1264;22535;-49
2023/01/22 14:49:50;;;;;;;7.70;7.10;;;23.70;45.40;;;;;;222051;1270;23928;-51
2023/01/22 14:54:57;;;;;;;8.10;7.30;;;23.80;44.90;;;;;;221974;1269;22524;-49
2023/01/22 15:00:04;;;;;;;8.20;7.50;;;23.80;44.80;;;;;;221941;1266;25375;-51
2023/01/22 15:05:11;;;;;;;8.10;7.40;;;23.70;44.80;;;;;;221895;1271;22531;-52
2023/01/22 15:10:16;;;;;;;8.00;7.20;;;23.80;45.10;;;;;;221983;1270;22548;-52
2023/01/22 15:15:27;;;;;;;7.60;6.90;;;23.80;44.60;;;;;;222005;1259;24226;-51
2023/01/22 15:20:33;;;;;;;8.40;7.70;;;23.90;44.50;;;;;;222044;1256;25364;-52
2023/01/22 15:25:38;;;;;;;8.40;7.70;;;23.90;44.50;;;;;;222238;1269;24238;-52
2023/01/22 15:30:45;;;;;;;8.10;7.40;;;23.90;44.40;;;;;;221986;1256;22614;-50
2023/01/22 15:35:51;;;;;;;8.50;7.70;;;23.90;44.90;;;;;;222094;1269;22617;-51
2023/01/22 15:41:07;;;;;;;8.80;8.00;;;23.70;44.70;;;;;;221913;1270;25303;-47
2023/01/22 15:46:12;;;;;;;8.60;7.80;;;23.60;45.10;;;;;;221815;1271;22742;-51
2023/01/22 15:51:20;;;;;;;8.30;7.60;;;23.60;45.10;;;;;;222029;1260;25362;-50
2023/01/22 15:56:28;;;;;;;8.20;7.50;;;23.30;45.40;;;;;;222130;1269;23971;-51
2023/01/22 16:01:33;;;;;;;9.10;8.20;;;23.10;45.70;;;;;;222295;1270;22532;-50
2023/01/22 16:06:41;;;;;;;8.70;7.90;;;23.00;46.30;;;;;;221939;1269;22770;-53
2023/01/22 16:11:48;;;;;;;9.40;8.50;;;22.90;46.00;;;;;;222163;1270;26525;-52
2023/01/22 16:16:55;;;;;;;8.50;7.80;;;22.80;46.10;;;;;;222019;1253;24362;-49
2023/01/22 16:22:02;;;;;;;8.90;8.20;;;22.70;45.90;;;;;;221904;1270;22643;-48
2023/01/22 16:27:11;;;;;;;9.30;8.40;;;22.60;46.30;;;;;;221934;1270;22982;-50
2023/01/22 16:32:16;;;;;;;9.60;8.70;;;22.60;45.90;;;;;;221823;1256;24187;-52
2023/01/22 16:37:22;;;;;;;10.20;9.20;;;22.40;45.90;;;;;;222191;1270;22630;-50
2023/01/22 16:42:28;;;;;;;10.50;9.50;;;22.40;46.30;;;;;;222236;1269;26565;-50
2023/01/22 16:47:39;;;;;;;9.10;8.30;;;22.30;46.00;;;;;;221170;1276;22797;-53
2023/01/22 16:52:46;;;;;;;9.70;8.90;;;22.20;46.00;;;;;;220981;1276;24225;-49
2023/01/22 16:57:52;;;;;;;10.40;9.40;;;22.10;46.60;;;;;;221020;1276;23336;-47
2023/01/22 17:03:01;;;;;;;10.10;9.20;;;22.00;46.10;;;;;;220987;1276;24220;-47
2023/01/22 17:08:09;;;;;;;12.40;10.70;;;22.00;46.00;;;;;;220818;1273;25433;-47
2023/01/22 17:13:18;;;;;;;13.20;10.00;;;22.00;46.70;;;;;;221526;1253;24212;-54
2023/01/22 17:18:23;;;;;;;13.80;9.80;;;22.20;45.80;;;;;;224729;1266;22540;-52
2023/01/22 17:23:29;;;;;;;10.40;9.10;;;22.60;45.20;;;;;;222428;1256;22617;-47
2023/01/22 17:28:38;;;;;;;10.10;9.20;;;23.00;44.20;;;;;;221785;1270;24218;-53
2023/01/22 17:33:43;;;;;;;10.80;9.30;;;23.10;44.20;;;;;;222203;1263;23890;-49
2023/01/22 17:38:52;;;;;;;10.60;9.10;;;23.20;44.20;;;;;;222222;1255;24206;-55
2023/01/22 17:43:59;;;;;;;14.90;8.90;;;23.40;44.20;;;;;;222026;1270;25431;-54
2023/01/22 17:49:07;;;;;;;10.50;9.40;;;23.40;44.40;;;;;;221784;1263;25401;-53
2023/01/22 17:54:15;;;;;;;11.70;8.90;;;23.50;44.50;;;;;;221819;1270;23872;-52
2023/01/22 17:59:23;;;;;;;9.90;8.60;;;23.50;44.60;;;;;;221881;1264;22532;-50
2023/01/22 18:04:33;;;;;;;10.40;8.50;;;23.50;44.70;;;;;;221899;1270;23325;-52
2023/01/22 18:09:39;;;;;;;12.70;8.60;;;23.60;44.90;;;;;;221696;1267;22530;-50
2023/01/22 18:14:47;;;;;;;11.50;8.50;;;23.60;45.90;;;;;;221783;1270;24316;-47
2023/01/22 18:19:53;;;;;;;11.00;8.10;;;23.80;44.80;;;;;;221843;1256;22746;-49
2023/01/22 18:24:59;;;;;;;9.10;8.20;;;23.80;44.80;;;;;;222310;1271;22563;-49
2023/01/22 18:30:07;;;;;;;9.80;8.60;;;23.90;45.20;;;;;;221897;1264;22653;-49
2023/01/22 18:35:16;;;;;;;17.10;8.50;;;24.00;44.80;;;;;;222028;1257;22929;-49
2023/01/22 18:40:23;;;;;;;17.90;9.00;;;23.90;45.30;;;;;;222044;1264;25547;-46
2023/01/22 18:45:34;;;;;;;9.30;8.30;;;23.80;45.30;;;;;;221851;1256;26207;-50
2023/01/22 18:50:52;;;;;;;15.30;7.60;;;23.70;45.40;;;;;;221822;1263;22557;-50
2023/01/22 18:56:05;;;;;;;11.20;8.30;;;23.60;45.50;;;;;;221938;1264;22541;-48
2023/01/22 19:01:19;;;;;;;18.60;8.60;;;23.50;45.70;;;;;;221819;1254;22544;-46
2023/01/22 19:06:31;;;;;;;15.50;8.40;;;23.40;45.90;;;;;;222031;1258;25432;-47
2023/01/22 19:11:45;;;;;;;12.40;9.00;;;23.30;46.70;;;;;;221952;1264;22539;-44
2023/01/22 19:16:53;;;;;;;15.50;8.90;;;23.30;47.10;;;;;;221796;1267;22617;-47
2023/01/22 19:21:59;;;;;;;18.50;9.40;;;23.30;47.20;;;;;;221989;1267;25607;-47
2023/01/22 19:27:06;;;;;;;14.90;8.60;;;23.10;47.50;;;;;;221895;1264;22681;-48
2023/01/22 19:32:16;;;;;;;24.60;9.40;;;23.00;47.70;;;;;;221802;1260;22561;-47
2023/01/22 19:37:28;;;;;;;15.80;8.80;;;22.90;48.00;;;;;;221824;1260;24347;-49
2023/01/22 19:42:34;;;;;;;15.00;8.80;;;22.80;48.30;;;;;;221747;1264;22614;-47
2023/01/22 19:47:42;;;;;;;13.90;9.50;;;22.70;48.40;;;;;;221772;1264;23073;-44
2023/01/22 19:52:54;;;;;;;12.60;9.00;;;22.70;48.70;;;;;;221810;1266;23067;-47
2023/01/22 19:58:00;;;;;;;14.40;9.40;;;22.60;48.60;;;;;;221891;1264;22616;-46
2023/01/22 20:03:08;;;;;;;21.80;9.70;;;22.60;48.70;;;;;;221826;1264;24378;-47
2023/01/22 20:08:18;;;;;;;16.10;9.50;;;22.70;49.70;;;;;;221804;1264;22636;-50
2023/01/22 20:13:24;;;;;;;17.60;9.30;;;22.60;49.60;;;;;;221862;1267;24344;-45
2023/01/22 20:18:36;;;;;;;24.80;9.40;;;22.50;50.00;;;;;;222044;1264;22552;-47
2023/01/22 20:23:45;;;;;;;21.80;9.60;;;22.60;51.10;;;;;;221971;1257;25566;-46
2023/01/22 20:28:54;;;;;;;18.10;8.70;;;22.60;51.50;;;;;;222129;1257;25345;-47
2023/01/22 20:34:01;;;;;;;18.30;9.90;;;22.50;51.80;;;;;;222248;1267;25429;-47
2023/01/22 20:39:08;;;;;;;24.30;9.80;;;22.50;51.80;;;;;;222149;1260;24052;-53
2023/01/22 20:44:16;;;;;;;15.70;9.50;;;22.40;52.50;;;;;;221868;1267;22879;-50
2023/01/22 20:49:21;;;;;;;16.40;9.00;;;22.20;52.30;;;;;;221811;1257;24220;-49
2023/01/22 20:54:28;;;;;;;14.10;9.20;;;22.30;52.00;;;;;;222034;1257;23484;-47
2023/01/22 20:59:39;;;;;;;12.70;9.10;;;22.30;53.00;;;;;;222041;1264;24154;-49
2023/01/22 21:04:50;;;;;;;16.70;9.80;;;22.20;52.10;;;;;;222002;1257;25267;-49
2023/01/22 21:09:57;;;;;;;16.40;8.50;;;22.20;52.50;;;;;;221823;1263;24244;-51
2023/01/22 21:15:16;;;;;;;17.40;9.30;;;22.10;52.70;;;;;;222587;1254;23905;-49
2023/01/22 21:20:24;;;;;;;18.40;9.70;;;22.20;53.10;;;;;;221858;1263;26954;-49
2023/01/22 21:25:29;;;;;;;14.60;9.80;;;22.10;53.30;;;;;;221920;1263;22662;-50
2023/01/22 21:30:35;;;;;;;17.90;9.50;;;22.00;53.00;;;;;;221742;1264;22761;-49
2023/01/22 21:35:47;;;;;;;13.70;9.60;;;22.00;52.80;;;;;;221813;1256;22531;-47
2023/01/22 21:41:12;;;;;;;10.80;8.70;;;22.00;53.40;;;;;;221605;1271;25474;-48
2023/01/22 21:46:26;;;;;;;12.40;8.70;;;22.00;52.70;;;;;;221571;1258;22527;-47
2023/01/22 21:51:31;;;;;;;16.70;9.20;;;22.00;53.00;;;;;;221784;1262;25326;-50
2023/01/22 21:56:36;;;;;;;11.70;9.40;;;21.90;52.80;;;;;;221812;1267;24205;-50
2023/01/22 22:01:43;;;;;;;11.90;8.40;;;22.00;52.60;;;;;;221858;1262;23998;-49
2023/01/22 22:06:47;;;;;;;10.90;8.40;;;22.30;52.40;;;;;;222028;1263;23884;-46
2023/01/22 22:11:57;;;;;;;12.90;8.80;;;22.70;51.50;;;;;;221883;1269;22646;-49
2023/01/22 22:17:01;;;;;;;11.30;8.50;;;22.80;51.00;;;;;;222039;1263;24202;-47
2023/01/22 22:22:05;;;;;;;9.80;8.50;;;23.00;50.60;;;;;;221805;1248;22550;-50
2023/01/22 22:27:09;;;;;;;9.90;8.10;;;23.20;50.10;;;;;;221881;1257;24024;-48
2023/01/22 22:32:13;;;;;;;8.80;7.60;;;23.30;49.90;;;;;;222116;1255;24192;-49
2023/01/22 22:37:18;;;;;;;10.30;8.00;;;23.30;49.80;;;;;;222179;1266;22556;-48
2023/01/22 22:42:22;;;;;;;11.50;8.40;;;23.30;49.70;;;;;;222170;1263;22540;-51
2023/01/22 22:47:26;;;;;;;12.90;8.10;;;23.40;49.50;;;;;;222025;1259;23856;-50
2023/01/22 22:52:33;;;;;;;7.50;6.80;;;23.50;49.40;;;;;;221948;1255;23345;-50
2023/01/22 22:57:37;;;;;;;11.10;8.00;;;23.60;49.40;;;;;;222124;1263;25887;-49
2023/01/22 23:02:41;;;;;;;7.80;7.00;;;23.70;49.00;;;;;;221881;1266;22687;-49
2023/01/22 23:07:45;;;;;;;8.60;7.80;;;23.70;49.00;;;;;;221914;1264;22554;-50
2023/01/22 23:12:52;;;;;;;9.30;7.70;;;23.70;49.00;;;;;;221907;1247;22652;-50
2023/01/22 23:17:57;;;;;;;8.20;7.10;;;23.80;48.80;;;;;;222159;1263;22528;-49
2023/01/22 23:23:02;;;;;;;7.20;6.60;;;23.90;48.70;;;;;;221758;1270;23252;-49
2023/01/22 23:28:05;;;;;;;7.20;6.50;;;23.80;48.80;;;;;;222027;1257;22602;-50
2023/01/22 23:33:09;;;;;;;8.50;6.90;;;23.70;49.00;;;;;;221939;1263;26543;-53
2023/01/22 23:38:13;;;;;;;9.20;6.80;;;23.60;49.30;;;;;;221938;1263;23904;-50
2023/01/22 23:43:17;;;;;;;8.60;7.60;;;23.50;49.40;;;;;;221871;1263;25379;-47
2023/01/22 23:48:22;;;;;;;9.70;6.80;;;23.40;49.80;;;;;;221889;1263;22531;-47
2023/01/22 23:53:26;;;;;;;10.30;7.50;;;23.30;49.70;;;;;;221826;1253;22558;-48
2023/01/22 23:58:31;;;;;;;13.50;7.70;;;23.20;50.90;;;;;;221781;1263;25447;-47
